createdAt,value
2022-09-15T00:00:21.801Z,8.85
2022-09-15T00:03:00.950Z,7.97
2022-09-15T00:05:30.395Z,8.18
2022-09-15T00:07:59.596Z,7.53
2022-09-15T00:10:31.318Z,7.53
2022-09-15T00:13:08.501Z,9.00
2022-09-15T00:15:37.528Z,7.80
2022-09-15T00:18:08.632Z,8.73
2022-09-15T00:20:52.728Z,7.13
2022-09-15T00:23:22.029Z,6.93
2022-09-15T00:25:54.761Z,7.55
2022-09-15T00:28:24.590Z,7.68
2022-09-15T00:30:58.776Z,7.78
2022-09-15T00:33:28.056Z,8.23
2022-09-15T00:35:57.212Z,7.22
2022-09-15T00:38:29.611Z,7.85
2022-09-15T00:41:02.136Z,6.65
2022-09-15T00:43:50.348Z,8.55
2022-09-15T00:46:24.153Z,7.57
2022-09-15T00:49:01.175Z,7.78
2022-09-15T00:51:41.793Z,8.85
2022-09-15T00:54:19.055Z,7.68
2022-09-15T00:56:56.803Z,7.30
2022-09-15T00:59:38.393Z,7.57
2022-09-15T01:02:15.134Z,7.57
2022-09-15T01:04:44.425Z,6.40
2022-09-15T01:07:35.904Z,7.60
2022-09-15T01:10:09.722Z,7.65
2022-09-15T01:12:42.352Z,7.97
2022-09-15T01:15:11.730Z,6.72
2022-09-15T01:18:00.460Z,7.03
2022-09-15T01:21:02.220Z,7.20
2022-09-15T01:24:12.275Z,6.38
2022-09-15T01:27:30.617Z,7.00
2022-09-15T01:30:11.232Z,7.15
2022-09-15T01:33:21.110Z,7.88
2022-09-15T01:36:02.681Z,8.10
2022-09-15T01:38:50.173Z,7.10
2022-09-15T01:41:26.032Z,7.53
2022-09-15T01:44:02.532Z,7.53
2022-09-15T01:46:38.371Z,8.45
2022-09-15T01:49:14.975Z,6.80
2022-09-15T01:51:46.759Z,7.40
2022-09-15T01:54:20.758Z,6.53
2022-09-15T01:56:49.910Z,6.45
2022-09-15T01:59:19.877Z,7.75
2022-09-15T02:02:07.022Z,8.25
2022-09-15T02:04:46.535Z,7.50
2022-09-15T02:07:26.083Z,7.10
2022-09-15T02:10:04.610Z,7.40
2022-09-15T02:12:42.496Z,8.43
2022-09-15T02:15:17.975Z,10.23
2022-09-15T02:17:54.265Z,7.70
2022-09-15T02:20:41.143Z,6.77
2022-09-15T02:23:18.942Z,7.97
2022-09-15T02:25:55.000Z,8.80
2022-09-15T02:28:30.002Z,8.75
2022-09-15T02:31:02.158Z,11.90
2022-09-15T02:33:40.220Z,10.77
2022-09-15T02:36:11.668Z,7.38
2022-09-15T02:38:50.915Z,8.70
2022-09-15T02:41:20.359Z,6.95
2022-09-15T02:43:50.817Z,5.82
2022-09-15T02:46:22.553Z,6.73
2022-09-15T02:48:53.905Z,6.63
2022-09-15T02:51:23.183Z,9.15
2022-09-15T02:53:53.342Z,8.18
2022-09-15T02:56:22.592Z,6.55
2022-09-15T02:58:52.553Z,7.20
2022-09-15T03:01:23.641Z,7.97
2022-09-15T03:03:54.443Z,6.72
2022-09-15T03:06:28.016Z,7.13
2022-09-15T03:09:00.357Z,8.18
2022-09-15T03:11:31.206Z,6.73
2022-09-15T03:14:02.826Z,7.75
2022-09-15T03:16:34.476Z,6.43
2022-09-15T03:19:05.810Z,6.85
2022-09-15T03:21:34.914Z,6.70
2022-09-15T03:24:03.938Z,6.77
2022-09-15T03:26:32.975Z,8.23
2022-09-15T03:29:01.689Z,6.70
2022-09-15T03:31:30.336Z,8.45
2022-09-15T03:33:59.088Z,8.10
2022-09-15T03:36:29.145Z,7.57
2022-09-15T03:38:58.263Z,7.30
2022-09-15T03:41:29.437Z,8.98
2022-09-15T03:43:58.653Z,7.32
2022-09-15T03:46:27.754Z,8.65
2022-09-15T03:48:57.121Z,7.20
2022-09-15T03:51:26.398Z,7.35
2022-09-15T03:53:57.574Z,8.10
2022-09-15T03:56:30.710Z,7.00
2022-09-15T03:59:01.501Z,9.48
2022-09-15T04:01:31.743Z,8.90
2022-09-15T04:04:00.636Z,7.88
2022-09-15T04:06:29.886Z,8.80
2022-09-15T04:09:01.369Z,7.38
2022-09-15T04:11:31.065Z,8.60
2022-09-15T04:14:00.589Z,8.87
2022-09-15T04:16:29.568Z,8.32
2022-09-15T04:18:58.448Z,8.13
2022-09-15T04:21:28.432Z,8.88
2022-09-15T04:23:57.281Z,9.00
2022-09-15T04:26:34.076Z,8.90
2022-09-15T04:29:05.561Z,9.38
2022-09-15T04:31:35.824Z,9.55
2022-09-15T04:34:07.158Z,7.07
2022-09-15T04:36:36.461Z,7.18
2022-09-15T04:39:11.842Z,10.07
2022-09-15T04:41:42.404Z,8.38
2022-09-15T04:44:11.095Z,10.05
2022-09-15T04:46:39.958Z,8.85
2022-09-15T04:49:09.039Z,11.60
2022-09-15T04:51:37.949Z,10.37
2022-09-15T04:54:07.883Z,9.93
2022-09-15T04:56:36.681Z,10.32
2022-09-15T04:59:06.833Z,13.65
2022-09-15T05:01:36.464Z,9.93
2022-09-15T05:04:06.018Z,10.13
2022-09-15T05:06:40.004Z,12.52
2022-09-15T05:09:13.966Z,11.13
2022-09-15T05:11:43.351Z,11.48
2022-09-15T05:14:13.726Z,11.27
2022-09-15T05:16:42.643Z,10.97
2022-09-15T05:19:12.375Z,11.90
2022-09-15T05:21:41.205Z,8.70
2022-09-15T05:24:10.845Z,11.18
2022-09-15T05:26:45.995Z,11.57
2022-09-15T05:29:16.521Z,12.37
2022-09-15T05:31:45.820Z,12.82
2022-09-15T05:34:15.434Z,10.95
2022-09-15T05:36:44.584Z,11.05
2022-09-15T05:39:13.365Z,10.00
2022-09-15T05:41:42.223Z,10.40
2022-09-15T05:44:15.006Z,11.45
2022-09-15T05:46:45.644Z,10.75
2022-09-15T05:49:16.930Z,8.75
2022-09-15T05:51:45.758Z,10.63
2022-09-15T05:54:14.603Z,10.13
2022-09-15T05:56:43.240Z,8.60
2022-09-15T05:59:15.354Z,9.73
2022-09-15T06:01:45.964Z,10.73
2022-09-15T06:04:14.763Z,9.68
2022-09-15T06:06:43.483Z,10.73
2022-09-15T06:09:12.749Z,9.98
2022-09-15T06:11:41.588Z,10.40
2022-09-15T06:14:23.109Z,8.68
2022-09-15T06:16:53.193Z,13.30
2022-09-15T06:19:21.978Z,9.10
2022-09-15T06:21:51.001Z,10.73
2022-09-15T06:24:19.832Z,9.57
2022-09-15T06:26:48.465Z,11.98
2022-09-15T06:29:17.084Z,8.52
2022-09-15T06:31:45.748Z,7.60
2022-09-15T06:34:15.836Z,8.38
2022-09-15T06:36:44.658Z,7.38
2022-09-15T06:39:14.149Z,8.85
2022-09-15T06:42:01.346Z,6.50
2022-09-15T06:44:31.021Z,7.03
2022-09-15T06:46:59.794Z,7.28
2022-09-15T06:49:31.371Z,7.95
2022-09-15T06:52:01.972Z,7.75
2022-09-15T06:54:31.436Z,7.07
2022-09-15T06:57:00.067Z,5.80
2022-09-15T06:59:28.838Z,7.07
2022-09-15T07:02:02.644Z,8.25
2022-09-15T07:04:37.026Z,5.93
2022-09-15T07:07:06.250Z,7.35
2022-09-15T07:09:35.578Z,5.53
2022-09-15T07:12:06.169Z,6.72
2022-09-15T07:14:35.424Z,6.93
2022-09-15T07:17:04.515Z,5.70
2022-09-15T07:19:34.675Z,6.82
2022-09-15T07:22:06.461Z,5.37
2022-09-15T07:24:35.228Z,6.35
2022-09-15T07:27:05.438Z,5.50
2022-09-15T07:29:37.704Z,6.50
2022-09-15T07:32:08.590Z,6.05
2022-09-15T07:34:43.928Z,6.20
2022-09-15T07:37:12.760Z,7.47
2022-09-15T07:39:41.526Z,6.38
2022-09-15T07:42:10.576Z,6.15
2022-09-15T07:44:42.115Z,7.18
2022-09-15T07:47:10.807Z,6.53
2022-09-15T07:49:41.034Z,4.72
2022-09-15T07:52:10.169Z,6.47
2022-09-15T07:54:38.936Z,6.28
2022-09-15T07:57:07.643Z,5.32
2022-09-15T07:59:41.013Z,6.47
2022-09-15T08:03:54.910Z,5.72
2022-09-15T08:06:45.301Z,5.40
2022-09-15T08:09:21.513Z,5.18
2022-09-15T08:11:50.516Z,5.97
2022-09-15T08:14:22.040Z,6.60
2022-09-15T08:17:12.123Z,5.32
2022-09-15T08:19:52.602Z,5.95
2022-09-15T08:22:22.811Z,5.70
2022-09-15T08:24:53.191Z,7.15
2022-09-15T08:27:23.383Z,6.00
2022-09-15T08:29:59.019Z,6.65
2022-09-15T08:32:35.642Z,5.72
2022-09-15T08:35:06.050Z,6.60
2022-09-15T08:37:51.082Z,6.63
2022-09-15T08:40:26.721Z,7.60
2022-09-15T08:43:00.764Z,6.50
2022-09-15T08:45:42.765Z,6.25
2022-09-15T08:48:18.431Z,5.72
2022-09-15T08:50:56.548Z,6.75
2022-09-15T08:53:33.217Z,6.27
2022-09-15T08:56:15.063Z,6.85
2022-09-15T08:58:44.688Z,6.28
2022-09-15T09:01:58.684Z,6.90
2022-09-15T09:04:48.105Z,6.07
2022-09-15T09:07:53.650Z,5.80
2022-09-15T09:10:39.057Z,5.05
2022-09-15T09:13:22.083Z,6.07
2022-09-15T09:16:17.404Z,6.13
2022-09-15T09:19:14.175Z,4.55
2022-09-15T09:21:57.113Z,6.43
2022-09-15T09:24:38.084Z,5.28
2022-09-15T09:27:15.328Z,5.18
2022-09-15T09:29:49.710Z,5.22
2022-09-15T09:32:24.613Z,6.43
2022-09-15T09:35:03.327Z,5.93
2022-09-15T09:37:34.623Z,5.70
2022-09-15T09:40:05.039Z,6.78
2022-09-15T09:42:40.680Z,5.65
2022-09-15T09:45:15.453Z,7.13
2022-09-15T09:47:44.696Z,7.90
2022-09-15T09:50:39.108Z,6.07
2022-09-15T09:53:34.651Z,6.63
2022-09-15T09:56:25.312Z,5.30
2022-09-15T09:58:56.754Z,5.72
2022-09-15T10:02:15.930Z,5.57
2022-09-15T10:04:49.060Z,5.40
2022-09-15T10:07:20.929Z,5.38
2022-09-15T10:09:56.937Z,5.15
2022-09-15T10:12:33.320Z,7.57
2022-09-15T10:15:26.210Z,5.43
2022-09-15T10:18:01.490Z,5.68
2022-09-15T10:20:39.731Z,5.55
2022-09-15T10:23:28.408Z,4.93
2022-09-15T10:26:22.121Z,6.60
2022-09-15T10:29:14.822Z,4.63
2022-09-15T10:31:46.763Z,3.75
2022-09-15T10:34:31.872Z,7.05
2022-09-15T10:37:15.638Z,6.63
2022-09-15T10:39:55.182Z,6.15
2022-09-15T10:42:52.768Z,4.87
2022-09-15T10:45:34.402Z,5.78
2022-09-15T10:48:50.516Z,5.43
2022-09-15T10:51:48.300Z,4.30
2022-09-15T10:54:51.690Z,4.82
2022-09-15T10:57:40.098Z,4.73
2022-09-15T11:00:14.582Z,5.75
2022-09-15T11:03:54.919Z,6.78
2022-09-15T11:06:31.405Z,5.70
2022-09-15T11:09:21.767Z,4.28
2022-09-15T11:12:08.907Z,3.67
2022-09-15T11:14:57.715Z,5.57
2022-09-15T11:17:54.981Z,6.45
2022-09-15T11:21:08.584Z,3.95
2022-09-15T11:24:04.908Z,4.88
2022-09-15T11:26:42.332Z,6.07
2022-09-15T11:29:22.547Z,5.90
2022-09-15T11:31:57.644Z,3.95
2022-09-15T11:34:35.865Z,6.72
2022-09-15T11:37:15.411Z,4.68
2022-09-15T11:39:53.517Z,4.67
2022-09-15T11:42:37.824Z,5.25
2022-09-15T11:45:19.031Z,4.57
2022-09-15T11:47:54.775Z,5.28
2022-09-15T11:50:30.587Z,4.68
2022-09-15T11:53:18.831Z,4.60
2022-09-15T11:56:01.336Z,5.22
2022-09-15T11:58:44.568Z,5.07
2022-09-15T12:01:20.226Z,4.57
2022-09-15T12:03:54.859Z,5.88
2022-09-15T12:06:33.774Z,5.63
2022-09-15T12:09:08.047Z,4.50
2022-09-15T12:11:43.101Z,6.93
2022-09-15T12:14:18.193Z,4.03
2022-09-15T12:16:47.679Z,4.57
2022-09-15T12:19:37.952Z,5.23
2022-09-15T12:22:16.311Z,5.28
2022-09-15T12:25:03.602Z,5.10
2022-09-15T12:27:32.679Z,7.35
2022-09-15T12:30:02.282Z,7.30
2022-09-15T12:32:35.256Z,4.43
2022-09-15T12:35:33.298Z,4.82
2022-09-15T12:38:02.502Z,4.50
2022-09-15T12:40:41.809Z,6.75
2022-09-15T12:43:23.777Z,5.10
2022-09-15T12:46:02.519Z,4.73
2022-09-15T12:48:36.567Z,5.65
2022-09-15T12:51:10.485Z,7.03
2022-09-15T12:53:55.580Z,5.07
2022-09-15T12:56:28.352Z,6.10
2022-09-15T12:58:57.456Z,7.40
2022-09-15T13:01:46.845Z,5.57
2022-09-15T13:04:53.772Z,5.85
2022-09-15T13:07:59.281Z,5.13
2022-09-15T13:10:43.783Z,7.70
2022-09-15T13:13:40.007Z,4.27
2022-09-15T13:16:16.236Z,7.22
2022-09-15T13:18:48.015Z,4.85
2022-09-15T13:21:24.235Z,4.75
2022-09-15T13:23:56.000Z,7.53
2022-09-15T13:26:29.971Z,4.20
2022-09-15T13:29:01.451Z,4.63
2022-09-15T13:31:45.073Z,5.35
2022-09-15T13:35:06.197Z,4.22
2022-09-15T13:38:32.129Z,4.18
2022-09-15T13:41:43.711Z,4.70
2022-09-15T13:45:09.045Z,5.05
2022-09-15T13:48:24.287Z,5.30
2022-09-15T13:51:00.246Z,4.47
2022-09-15T13:53:51.283Z,4.68
2022-09-15T13:56:35.653Z,5.47
2022-09-15T13:59:14.041Z,6.13
2022-09-15T14:01:46.878Z,5.47
2022-09-15T14:04:24.671Z,4.30
2022-09-15T14:07:00.161Z,4.43
2022-09-15T14:09:43.920Z,5.53
2022-09-15T14:12:24.348Z,4.28
2022-09-15T14:14:58.782Z,4.93
2022-09-15T14:17:32.064Z,5.13
2022-09-15T14:20:04.343Z,5.68
2022-09-15T14:22:36.078Z,5.63
2022-09-15T14:25:17.459Z,4.78
2022-09-15T14:27:50.134Z,4.32
2022-09-15T14:30:25.663Z,4.25
2022-09-15T14:33:01.190Z,4.60
2022-09-15T14:35:38.156Z,5.17
2022-09-15T14:38:10.185Z,5.53
2022-09-15T14:40:41.831Z,5.40
2022-09-15T14:43:43.250Z,7.03
2022-09-15T14:46:32.914Z,5.00
2022-09-15T14:49:11.805Z,5.40
2022-09-15T14:51:43.752Z,5.13
2022-09-15T14:54:20.960Z,5.15
2022-09-15T14:56:52.429Z,6.45
2022-09-15T14:59:28.168Z,5.50
2022-09-15T15:02:07.350Z,5.20
2022-09-15T15:04:42.716Z,5.97
2022-09-15T15:07:20.041Z,8.90
2022-09-15T15:09:59.163Z,5.65
2022-09-15T15:12:36.203Z,7.20
2022-09-15T15:15:08.509Z,7.03
2022-09-15T15:17:43.830Z,6.32
2022-09-15T15:20:22.967Z,7.30
2022-09-15T15:23:17.903Z,6.40
2022-09-15T15:25:50.823Z,6.20
2022-09-15T15:28:36.431Z,6.10
2022-09-15T15:31:30.533Z,7.28
2022-09-15T15:34:16.465Z,6.43
2022-09-15T15:37:06.685Z,6.60
2022-09-15T15:39:37.099Z,5.18
2022-09-15T15:42:18.211Z,8.13
2022-09-15T15:45:22.373Z,8.25
2022-09-15T15:47:52.331Z,6.72
2022-09-15T15:50:27.345Z,7.28
2022-09-15T15:52:58.229Z,8.68
2022-09-15T15:55:40.138Z,8.63
2022-09-15T15:58:12.292Z,7.40
2022-09-15T16:00:46.329Z,7.93
2022-09-15T16:03:17.545Z,7.68
2022-09-15T16:05:50.357Z,7.88
2022-09-15T16:08:28.279Z,7.83
2022-09-15T16:11:04.302Z,9.23
2022-09-15T16:13:37.812Z,6.95
2022-09-15T16:16:16.819Z,10.70
2022-09-15T16:18:45.800Z,10.20
2022-09-15T16:21:24.291Z,8.10
2022-09-15T16:23:57.124Z,8.73
2022-09-15T16:26:26.761Z,7.68
2022-09-15T16:28:55.796Z,7.90
2022-09-15T16:31:34.654Z,10.32
2022-09-15T16:34:06.377Z,7.13
2022-09-15T16:36:36.924Z,11.80
2022-09-15T16:39:07.175Z,10.52
2022-09-15T16:41:39.340Z,9.35
2022-09-15T16:44:20.494Z,9.30
2022-09-15T16:46:51.035Z,11.10
2022-09-15T16:49:20.361Z,9.18
2022-09-15T16:51:49.490Z,8.52
2022-09-15T16:54:22.188Z,9.65
2022-09-15T16:56:52.067Z,11.48
2022-09-15T16:59:20.813Z,11.73
2022-09-15T17:01:50.197Z,10.13
2022-09-15T17:04:20.007Z,11.80
2022-09-15T17:06:48.778Z,11.68
2022-09-15T17:09:20.069Z,11.20
2022-09-15T17:11:49.111Z,11.90
2022-09-15T17:14:18.922Z,12.93
2022-09-15T17:16:52.870Z,8.45
2022-09-15T17:19:21.893Z,12.30
2022-09-15T17:21:54.974Z,12.00
2022-09-15T17:24:25.341Z,10.10
2022-09-15T17:26:57.613Z,10.82
2022-09-15T17:29:35.018Z,9.20
2022-09-15T17:32:04.397Z,11.27
2022-09-15T17:34:33.363Z,10.93
2022-09-15T17:37:02.797Z,10.83
2022-09-15T17:39:34.278Z,8.93
2022-09-15T17:42:05.581Z,10.68
2022-09-15T17:44:37.578Z,9.18
2022-09-15T17:47:07.163Z,9.95
2022-09-15T17:49:38.092Z,8.47
2022-09-15T17:52:08.210Z,8.80
2022-09-15T17:54:38.590Z,7.88
2022-09-15T17:57:07.506Z,7.43
2022-09-15T17:59:36.526Z,8.70
2022-09-15T18:02:23.234Z,8.13
2022-09-15T18:04:59.802Z,9.50
2022-09-15T18:07:30.637Z,10.20
2022-09-15T18:10:07.132Z,8.48
2022-09-15T18:12:45.323Z,8.82
2022-09-15T18:15:23.249Z,9.93
2022-09-15T18:17:57.034Z,9.70
2022-09-15T18:20:43.067Z,10.10
2022-09-15T18:23:16.558Z,11.02
2022-09-15T18:25:51.422Z,8.93
2022-09-15T18:28:25.296Z,9.43
2022-09-15T18:30:57.190Z,8.15
2022-09-15T18:33:28.337Z,8.52
2022-09-15T18:36:00.146Z,8.98
2022-09-15T18:39:05.426Z,9.77
2022-09-15T18:41:38.940Z,8.70
2022-09-15T18:44:08.535Z,8.93
2022-09-15T18:49:32.703Z,10.55
2022-09-15T18:52:03.936Z,11.88
2022-09-15T18:54:38.394Z,6.23
2022-09-15T18:57:11.728Z,7.03
2022-09-15T18:59:50.405Z,10.73
2022-09-15T19:02:23.603Z,8.63
2022-09-15T19:04:54.768Z,7.90
2022-09-15T19:07:29.350Z,7.23
2022-09-15T19:12:52.686Z,8.93
2022-09-15T19:15:31.920Z,8.13
2022-09-15T19:18:02.869Z,10.82
2022-09-15T19:20:37.723Z,11.33
2022-09-15T19:23:07.948Z,10.70
2022-09-15T19:25:37.721Z,9.57
2022-09-15T19:28:13.474Z,7.60
2022-09-15T19:30:47.598Z,8.25
2022-09-15T19:33:17.928Z,8.40
2022-09-15T19:35:53.277Z,9.55
2022-09-15T19:38:32.110Z,6.43
2022-09-15T19:41:07.990Z,8.15
2022-09-15T19:43:40.481Z,7.57
2022-09-15T19:46:16.360Z,7.63
2022-09-15T19:48:49.507Z,8.70
2022-09-15T19:51:21.636Z,6.60
2022-09-15T19:54:00.032Z,6.32
2022-09-15T19:56:31.166Z,6.90
2022-09-15T19:59:10.642Z,8.87
2022-09-15T20:01:40.934Z,8.10
2022-09-15T20:04:12.613Z,10.43
2022-09-15T20:06:46.844Z,8.60
2022-09-15T20:09:26.421Z,8.07
2022-09-15T20:11:58.403Z,10.27
2022-09-15T20:14:34.313Z,8.18
2022-09-15T20:17:05.455Z,9.23
2022-09-15T20:19:38.722Z,11.10
2022-09-15T20:22:08.330Z,8.07
2022-09-15T20:24:38.353Z,8.03
2022-09-15T20:27:08.955Z,7.10
2022-09-15T20:29:39.207Z,7.70
2022-09-15T20:32:10.674Z,9.25
2022-09-15T20:34:42.910Z,5.57
2022-09-15T20:37:22.722Z,7.03
2022-09-15T20:40:04.519Z,7.85
2022-09-15T20:42:33.789Z,6.70
2022-09-15T20:45:04.447Z,8.18
2022-09-15T20:47:37.706Z,6.45
2022-09-15T20:50:07.641Z,8.00
2022-09-15T20:52:38.488Z,6.68
2022-09-15T20:55:08.195Z,6.30
2022-09-15T20:57:37.699Z,6.13
2022-09-15T21:00:12.637Z,6.93
2022-09-15T21:02:41.576Z,8.00
2022-09-15T21:05:10.963Z,8.23
2022-09-15T21:07:40.596Z,8.10
2022-09-15T21:10:10.778Z,6.97
2022-09-15T21:12:39.608Z,9.13
2022-09-15T21:15:11.663Z,7.63
2022-09-15T21:17:40.362Z,5.20
2022-09-15T21:20:10.782Z,7.30
2022-09-15T21:22:39.609Z,6.32
2022-09-15T21:25:09.109Z,6.10
2022-09-15T21:27:39.161Z,5.77
2022-09-15T21:30:11.858Z,6.93
2022-09-15T21:32:41.190Z,7.35
2022-09-15T21:35:10.399Z,7.30
2022-09-15T21:37:39.638Z,8.73
2022-09-15T21:40:11.602Z,6.47
2022-09-15T21:42:40.318Z,6.30
2022-09-15T21:45:11.748Z,6.65
2022-09-15T21:47:40.364Z,7.03
2022-09-15T21:50:10.117Z,5.40
2022-09-15T21:52:39.295Z,8.63
2022-09-15T21:55:08.831Z,6.32
2022-09-15T21:57:37.553Z,7.05
2022-09-15T22:00:07.907Z,7.43
2022-09-15T22:02:38.082Z,6.53
2022-09-15T22:05:08.704Z,6.97
2022-09-15T22:07:37.540Z,8.48
2022-09-15T22:10:07.645Z,9.90
2022-09-15T22:12:36.350Z,7.93
2022-09-15T22:15:05.971Z,4.88
2022-09-15T22:17:34.596Z,6.60
2022-09-15T22:20:07.834Z,5.05
2022-09-15T22:22:36.795Z,5.68
2022-09-15T22:25:06.221Z,8.98
2022-09-15T22:27:35.001Z,5.22
2022-09-15T22:30:03.803Z,5.57
2022-09-15T22:32:32.992Z,6.45
2022-09-15T22:35:01.789Z,6.28
2022-09-15T22:37:34.369Z,4.93
2022-09-15T22:40:03.812Z,7.43
2022-09-15T22:42:32.593Z,6.07
2022-09-15T22:45:01.472Z,8.55
2022-09-15T22:47:35.127Z,4.47
2022-09-15T22:50:04.153Z,6.13
2022-09-15T22:52:34.203Z,4.97
2022-09-15T22:55:03.290Z,5.20
2022-09-15T22:57:32.096Z,5.72
2022-09-15T23:00:00.903Z,4.63
2022-09-15T23:02:29.872Z,4.75
2022-09-15T23:04:59.641Z,5.63
2022-09-15T23:07:28.391Z,10.53
2022-09-15T23:09:58.871Z,6.55
2022-09-15T23:12:30.730Z,6.28
2022-09-15T23:15:03.940Z,6.45
2022-09-15T23:17:34.241Z,7.43
2022-09-15T23:20:03.741Z,5.90
2022-09-15T23:22:32.779Z,5.80
2022-09-15T23:25:02.935Z,6.28
2022-09-15T23:27:32.510Z,6.22
2022-09-15T23:30:01.433Z,5.70
2022-09-15T23:32:33.162Z,7.60
2022-09-15T23:35:01.876Z,6.65
2022-09-15T23:37:31.825Z,7.05
2022-09-15T23:40:02.384Z,6.15
2022-09-15T23:42:31.835Z,5.07
2022-09-15T23:45:00.720Z,5.43
2022-09-15T23:47:29.649Z,5.93
2022-09-15T23:50:00.499Z,5.32
2022-09-15T23:52:31.058Z,6.75
2022-09-15T23:54:59.808Z,6.10
2022-09-15T23:57:30.012Z,7.10
2022-09-15T23:59:58.802Z,5.88
